Titan — WDG3294 — position and weather

sailwx.info

Track history (hours):
 
Tides and Currents Weather Stations Pressure Air Temp Water Temp Dewpoint Dewpoint Depression Visibility Wind Speed Wind Dir Waves Ship Positions

Titan

Owner: Titan Fishing, LLC, New Bedford, MA. More information available from US FCC via Universal Licensing System and Coast Guard Vessel Documentation Center.

Last reported at 2014-Nov-28 20:29 UTC. Time now 2014-Dec-23 02:18 UTC.
Position N 41°26' W 071°10'.
Warning: this ship's position is 24 days out of date.

; draft 4 m.

Type: Other ship. MMSI: 367524560.

Date/timePositionNaut miles runAvg speedWind from/ knotsBaromVisibWave heightAir tempDewpointWater temp
2014-Nov-28 20:29N 41°26' W 071°10'9 9.5
2014-Nov-28 19:33N 41°26' W 071°22'9 8.6
2014-Nov-28 18:33N 41°34' W 071°24'3 2.6
2014-Nov-28 17:33N 41°37' W 071°24'0 0.0
2014-Nov-28 16:28N 41°37' W 071°24'0 0.0
2014-Nov-28 12:03N 41°37' W 071°24'0 0.0
2014-Nov-28 10:28N 41°37' W 071°24'0 0.0
2014-Nov-28 09:29N 41°37' W 071°24'0 0.0
2014-Nov-28 08:33N 41°37' W 071°24'0 0.0
2014-Nov-28 07:32N 41°37' W 071°24'0 0.0
2014-Nov-28 06:33N 41°37' W 071°24'0 0.0
2014-Nov-28 05:33N 41°37' W 071°24'0 0.0
2014-Nov-28 04:33N 41°37' W 071°24'0 0.0
2014-Nov-28 03:33N 41°37' W 071°24'0 0.0
2014-Nov-28 02:33N 41°37' W 071°24'0 0.0
2014-Nov-28 01:22N 41°37' W 071°24'0 0.0
2014-Nov-28 00:27N 41°37' W 071°24'0 0.0
2014-Nov-27 22:23N 41°37' W 071°24'0 0.0
2014-Nov-27 20:30N 41°37' W 071°24'0 0.0
2014-Nov-27 16:32N 41°37' W 071°24'0 0.0
2014-Nov-27 13:25N 41°37' W 071°24'0 0.0
2014-Nov-27 12:32N 41°37' W 071°24'0 0.0
2014-Nov-27 11:33N 41°37' W 071°24'0 0.0
2014-Nov-27 10:33N 41°37' W 071°24'0 0.0
2014-Nov-27 09:32N 41°37' W 071°24'0 0.0
2014-Nov-27 08:32N 41°37' W 071°24'0 0.0
2014-Nov-27 07:32N 41°37' W 071°24'0 0.0
2014-Nov-27 06:33N 41°37' W 071°24'0 0.0
2014-Nov-27 05:33N 41°37' W 071°24'0 0.0
2014-Nov-27 04:29N 41°37' W 071°24'0 0.0
2014-Nov-27 03:26N 41°37' W 071°24'0 0.0
2014-Nov-27 02:30N 41°37' W 071°24'0 0.0
2014-Nov-26 17:08N 41°37' W 071°24'0 0.0
2014-Nov-26 14:26N 41°37' W 071°24'0 0.0
2014-Nov-26 12:23N 41°37' W 071°24'0 0.1
2014-Nov-26 07:05N 41°37' W 071°24'4 6.7
2014-Nov-26 06:33N 41°33' W 071°24'37 7.0
2014-Nov-26 01:17N 41°15' W 070°41'6 8.2
2014-Nov-26 00:33N 41°13' W 070°34'9 8.6
2014-Nov-25 23:33N 41°10' W 070°23'9 9.0
2014-Nov-25 22:33N 41°07' W 070°11'9 9.5
2014-Nov-25 21:33N 41°04' W 069°60'10 9.6
2014-Nov-25 20:32N 41°00' W 069°48'9 9.3
2014-Nov-25 19:33N 41°02' W 069°36'8 8.3
2014-Nov-25 18:33N 41°04' W 069°25'7 7.1
2014-Nov-25 17:33N 41°06' W 069°16'  
Track history (hours):
 
Tides and Currents Weather Stations Pressure Air Temp Water Temp Dewpoint Dewpoint Depression Visibility Wind Speed Wind Dir Waves Ship Positions

Titan

Owner: Titan Fishing, LLC, New Bedford, MA. More information available from US FCC via Universal Licensing System and Coast Guard Vessel Documentation Center.

Last reported at 2014-Nov-28 20:29 UTC. Time now 2014-Dec-23 02:18 UTC.
Position N 41°26' W 071°10'.
Warning: this ship's position is 24 days out of date.

; draft 4 m.

Type: Other ship. MMSI: 367524560.

Date/timePositionNaut miles runAvg speedWind from/ knotsBaromVisibWave heightAir tempDewpointWater temp
2014-Nov-28 20:29N 41°26' W 071°10'9 9.5
2014-Nov-28 19:33N 41°26' W 071°22'9 8.6
2014-Nov-28 18:33N 41°34' W 071°24'3 2.6
2014-Nov-28 17:33N 41°37' W 071°24'0 0.0
2014-Nov-28 16:28N 41°37' W 071°24'0 0.0
2014-Nov-28 12:03N 41°37' W 071°24'0 0.0
2014-Nov-28 10:28N 41°37' W 071°24'0 0.0
2014-Nov-28 09:29N 41°37' W 071°24'0 0.0
2014-Nov-28 08:33N 41°37' W 071°24'0 0.0
2014-Nov-28 07:32N 41°37' W 071°24'0 0.0
2014-Nov-28 06:33N 41°37' W 071°24'0 0.0
2014-Nov-28 05:33N 41°37' W 071°24'0 0.0
2014-Nov-28 04:33N 41°37' W 071°24'0 0.0
2014-Nov-28 03:33N 41°37' W 071°24'0 0.0
2014-Nov-28 02:33N 41°37' W 071°24'0 0.0
2014-Nov-28 01:22N 41°37' W 071°24'0 0.0
2014-Nov-28 00:27N 41°37' W 071°24'0 0.0
2014-Nov-27 22:23N 41°37' W 071°24'0 0.0
2014-Nov-27 20:30N 41°37' W 071°24'0 0.0
2014-Nov-27 16:32N 41°37' W 071°24'0 0.0
2014-Nov-27 13:25N 41°37' W 071°24'0 0.0
2014-Nov-27 12:32N 41°37' W 071°24'0 0.0
2014-Nov-27 11:33N 41°37' W 071°24'0 0.0
2014-Nov-27 10:33N 41°37' W 071°24'0 0.0
2014-Nov-27 09:32N 41°37' W 071°24'0 0.0
2014-Nov-27 08:32N 41°37' W 071°24'0 0.0
2014-Nov-27 07:32N 41°37' W 071°24'0 0.0
2014-Nov-27 06:33N 41°37' W 071°24'0 0.0
2014-Nov-27 05:33N 41°37' W 071°24'0 0.0
2014-Nov-27 04:29N 41°37' W 071°24'0 0.0
2014-Nov-27 03:26N 41°37' W 071°24'0 0.0
2014-Nov-27 02:30N 41°37' W 071°24'0 0.0
2014-Nov-26 17:08N 41°37' W 071°24'0 0.0
2014-Nov-26 14:26N 41°37' W 071°24'0 0.0
2014-Nov-26 12:23N 41°37' W 071°24'0 0.1
2014-Nov-26 07:05N 41°37' W 071°24'4 6.7
2014-Nov-26 06:33N 41°33' W 071°24'37 7.0
2014-Nov-26 01:17N 41°15' W 070°41'6 8.2
2014-Nov-26 00:33N 41°13' W 070°34'9 8.6
2014-Nov-25 23:33N 41°10' W 070°23'9 9.0
2014-Nov-25 22:33N 41°07' W 070°11'9 9.5
2014-Nov-25 21:33N 41°04' W 069°60'10 9.6
2014-Nov-25 20:32N 41°00' W 069°48'9 9.3
2014-Nov-25 19:33N 41°02' W 069°36'8 8.3
2014-Nov-25 18:33N 41°04' W 069°25'7 7.1
2014-Nov-25 17:33N 41°06' W 069°16'  

Dump ship's entire track history